Colorado Springs, CO

5:15 PM MDT on July 26, 2016 (GMT -0600)
| | Change Station

Elev -9999 ft 0.00 °N, 0.00 °E | Updated

Thunderstorm
Thunderstorm
74 °F
Feels Like 74 °F
N
9
Wind Variable Wind from South
Gusts mph

Today
High -- | Low -- °F
--% Chance of Precip.
Yesterday
High -- | Low -- °F
Precip. -- in
Pressure 29.92 in
Visibility 10.0 miles
Clouds Scattered Clouds 11000 ft
Dew Point 44 °F
Humidity 34%
Rainfall --
Snow Depth Not available.
5:55 AM 8:15 PM
Waning Gibbous, 50% visible
METAR KAFF 262258Z AUTO 31009KT 10SM SCT110 28/04 A3023 RMK AO2 SLP131 T02760038
Pressure 29.92 in
Visibility 10.0 miles
Clouds Scattered Clouds 11000 ft
Dew Point 44 °F
Humidity 34%
Rainfall --
Snow Depth Not available.
5:55 AM 8:15 PM
Waning Gibbous, 50% visible
METAR KAFF 262258Z AUTO 31009KT 10SM SCT110 28/04 A3023 RMK AO2 SLP131 T02760038

10-Day Weather Forecast

Almanac

Astronomy

Jul. 26, 2016 Rise Set
Actual Time
Civil Twilight
Nautical Twilight
Astronomical Twilight
Moon
Length of Visible Light
Length of Day
Tomorrow will be .
, % of the Moon is Illuminated

Today's Extremes

State Highs State Lows

Community

WunderPhotos

Upload Photos

1,927,729 photos uploaded!

WunderBlog® & News

Nearby

Air Quality

  Air Quality AQ Index Pollutant
Not available.

Snow Depth

Station Depth Elevation

Earthquake Activity

City Distance Mag. Time & Date
Minimum magnitude displayed is 2.5.

Coastal Water Temperatures

Place Temperature

Stations

Nearby Weather Stations

Station Location Temp. Windchill Dew Point Humidity Wind Precip. Elev Updated Type
                   

Watches & Warnings

There are currently no watches in effect.